createdAt,value
2023-04-26T00:01:03.128Z,978.05
2023-04-26T00:02:03.738Z,978.03
2023-04-26T00:03:03.715Z,978.08
2023-04-26T00:04:04.015Z,978.00
2023-04-26T00:05:03.866Z,977.97
2023-04-26T00:06:03.532Z,978.03
2023-04-26T00:07:03.557Z,977.94
2023-04-26T00:08:03.216Z,978.17
2023-04-26T00:09:03.882Z,978.03
2023-04-26T00:10:04.076Z,978.06
2023-04-26T00:12:03.700Z,978.00
2023-04-26T00:13:03.792Z,978.03
2023-04-26T00:14:03.400Z,977.97
2023-04-26T00:15:03.947Z,978.00
2023-04-26T00:17:03.305Z,977.97
2023-04-26T00:18:03.181Z,978.06
2023-04-26T00:19:03.592Z,978.03
2023-04-26T00:21:03.085Z,978.06
2023-04-26T00:22:03.769Z,977.97
2023-04-26T00:24:03.785Z,978.09
2023-04-26T00:25:03.303Z,977.95
2023-04-26T00:26:03.351Z,978.03
2023-04-26T00:27:03.818Z,977.98
2023-04-26T00:29:03.029Z,978.26
2023-04-26T00:30:03.094Z,978.01
2023-04-26T00:31:03.211Z,978.21
2023-04-26T00:32:03.306Z,978.09
2023-04-26T00:33:03.832Z,977.95
2023-04-26T00:34:03.474Z,977.98
2023-04-26T00:35:03.607Z,978.01
2023-04-26T00:36:03.347Z,978.09
2023-04-26T00:37:03.300Z,977.98
2023-04-26T00:38:03.799Z,977.90
2023-04-26T00:40:03.152Z,977.99
2023-04-26T00:41:03.289Z,978.04
2023-04-26T00:42:03.895Z,978.07
2023-04-26T00:43:03.512Z,977.96
2023-04-26T00:44:03.477Z,978.07
2023-04-26T00:45:02.963Z,977.90
2023-04-26T00:46:03.738Z,977.96
2023-04-26T00:48:03.970Z,977.99
2023-04-26T00:49:03.816Z,978.02
2023-04-26T00:50:03.754Z,978.18
2023-04-26T00:51:03.288Z,978.04
2023-04-26T00:52:03.856Z,978.04
2023-04-26T00:53:03.866Z,978.10
2023-04-26T00:55:03.442Z,977.99
2023-04-26T00:57:03.217Z,978.02
2023-04-26T00:58:03.861Z,977.88
2023-04-26T00:59:03.931Z,978.05
2023-04-26T01:00:03.886Z,978.02
2023-04-26T01:02:03.754Z,978.10
2023-04-26T01:03:03.735Z,978.05
2023-04-26T01:04:04.326Z,978.19
2023-04-26T01:05:03.694Z,978.08
2023-04-26T01:06:03.248Z,978.02
2023-04-26T01:07:03.325Z,978.08
2023-04-26T01:08:03.800Z,978.11
2023-04-26T01:10:03.344Z,978.08
2023-04-26T01:11:03.914Z,978.16
2023-04-26T01:13:03.060Z,978.16
2023-04-26T01:14:03.537Z,978.08
2023-04-26T01:16:03.648Z,978.14
2023-04-26T01:17:03.428Z,978.08
2023-04-26T01:18:03.413Z,978.08
2023-04-26T01:19:02.959Z,978.19
2023-04-26T01:20:03.475Z,978.14
2023-04-26T01:21:03.939Z,978.31
2023-04-26T01:22:02.952Z,978.19
2023-04-26T01:23:03.103Z,978.08
2023-04-26T01:24:03.582Z,978.08
2023-04-26T01:25:03.611Z,978.14
2023-04-26T01:26:03.527Z,978.08
2023-04-26T01:27:03.186Z,978.25
2023-04-26T01:28:03.225Z,978.17
2023-04-26T01:29:03.736Z,978.14
2023-04-26T01:30:03.644Z,978.17
2023-04-26T01:31:03.356Z,978.03
2023-04-26T01:32:03.890Z,978.03
2023-04-26T01:33:03.673Z,978.11
2023-04-26T01:34:03.289Z,978.03
2023-04-26T01:35:03.916Z,978.06
2023-04-26T01:37:02.990Z,978.11
2023-04-26T01:38:03.433Z,978.11
2023-04-26T01:40:03.645Z,978.00
2023-04-26T01:42:03.770Z,978.00
2023-04-26T01:44:03.839Z,978.11
2023-04-26T01:45:03.588Z,978.12
2023-04-26T01:46:03.542Z,978.20
2023-04-26T01:47:03.184Z,978.06
2023-04-26T01:48:03.760Z,978.06
2023-04-26T01:50:03.872Z,978.03
2023-04-26T01:52:02.944Z,978.09
2023-04-26T01:53:03.542Z,978.15
2023-04-26T01:55:03.707Z,978.15
2023-04-26T01:56:03.825Z,978.09
2023-04-26T01:57:03.191Z,978.15
2023-04-26T01:58:03.723Z,978.12
2023-04-26T01:59:03.744Z,978.01
2023-04-26T02:00:03.252Z,978.03
2023-04-26T02:01:03.869Z,978.09
2023-04-26T02:02:03.927Z,978.09
2023-04-26T02:04:03.321Z,978.12
2023-04-26T02:05:03.873Z,978.09
2023-04-26T02:06:03.575Z,978.12
2023-04-26T02:07:03.377Z,978.15
2023-04-26T02:08:03.835Z,978.06
2023-04-26T02:09:03.469Z,978.01
2023-04-26T02:10:03.178Z,978.07
2023-04-26T02:11:03.676Z,978.01
2023-04-26T02:13:03.744Z,978.04
2023-04-26T02:14:03.842Z,978.07
2023-04-26T02:15:03.542Z,978.24
2023-04-26T02:16:03.074Z,978.04
2023-04-26T02:17:03.789Z,978.18
2023-04-26T02:18:03.607Z,978.15
2023-04-26T02:19:03.259Z,978.13
2023-04-26T02:20:03.984Z,978.15
2023-04-26T02:22:02.966Z,978.21
2023-04-26T02:23:03.696Z,978.21
2023-04-26T02:24:03.900Z,978.21
2023-04-26T02:25:03.085Z,978.27
2023-04-26T02:26:03.335Z,978.27
2023-04-26T02:27:03.264Z,978.07
2023-04-26T02:28:03.286Z,978.27
2023-04-26T02:29:03.821Z,978.21
2023-04-26T02:30:03.711Z,978.16
2023-04-26T02:31:03.288Z,978.25
2023-04-26T02:32:03.702Z,978.30
2023-04-26T02:34:02.933Z,978.16
2023-04-26T02:35:03.887Z,978.33
2023-04-26T02:36:03.448Z,978.25
2023-04-26T02:37:03.014Z,978.22
2023-04-26T02:38:03.937Z,978.28
2023-04-26T02:39:03.376Z,978.39
2023-04-26T02:40:03.328Z,978.25
2023-04-26T02:41:03.387Z,978.36
2023-04-26T02:42:02.987Z,978.25
2023-04-26T02:43:03.104Z,978.31
2023-04-26T02:44:03.747Z,978.31
2023-04-26T02:46:03.355Z,978.31
2023-04-26T02:47:04.002Z,978.28
2023-04-26T02:48:03.453Z,978.12
2023-04-26T02:49:03.205Z,978.31
2023-04-26T02:50:03.447Z,978.17
2023-04-26T02:51:03.370Z,978.18
2023-04-26T02:52:03.439Z,978.43
2023-04-26T02:53:03.077Z,978.35
2023-04-26T02:54:07.081Z,978.18
2023-04-26T02:56:03.243Z,978.18
2023-04-26T02:57:03.805Z,978.24
2023-04-26T02:59:02.930Z,978.13
2023-04-26T03:00:03.890Z,978.18
2023-04-26T03:01:03.413Z,978.27
2023-04-26T03:02:03.174Z,978.27
2023-04-26T03:03:03.662Z,978.19
2023-04-26T03:04:03.208Z,978.16
2023-04-26T03:05:03.193Z,978.16
2023-04-26T03:06:03.947Z,978.25
2023-04-26T03:08:02.900Z,978.16
2023-04-26T03:09:02.939Z,978.28
2023-04-26T03:10:03.670Z,978.11
2023-04-26T03:11:03.632Z,978.17
2023-04-26T03:12:03.747Z,978.28
2023-04-26T03:13:03.393Z,978.03
2023-04-26T03:14:03.020Z,978.14
2023-04-26T03:15:03.572Z,978.14
2023-04-26T03:17:03.769Z,978.11
2023-04-26T03:18:03.813Z,978.37
2023-04-26T03:19:03.279Z,978.26
2023-04-26T03:20:03.779Z,978.23
2023-04-26T03:22:03.049Z,978.23
2023-04-26T03:23:08.298Z,978.09
2023-04-26T03:24:02.977Z,978.12
2023-04-26T03:25:03.338Z,978.04
2023-04-26T03:26:03.111Z,978.21
2023-04-26T03:27:03.662Z,978.15
2023-04-26T03:28:03.197Z,978.15
2023-04-26T03:29:03.703Z,978.12
2023-04-26T03:30:03.726Z,978.07
2023-04-26T03:31:03.139Z,978.21
2023-04-26T03:32:03.734Z,978.15
2023-04-26T03:33:03.913Z,978.13
2023-04-26T03:34:03.588Z,978.13
2023-04-26T03:36:03.689Z,978.19
2023-04-26T03:38:03.851Z,978.07
2023-04-26T03:40:02.985Z,978.16
2023-04-26T03:41:03.941Z,978.11
2023-04-26T03:42:03.509Z,978.19
2023-04-26T03:43:08.455Z,978.11
2023-04-26T03:44:03.342Z,978.02
2023-04-26T03:45:03.173Z,978.14
2023-04-26T03:46:03.205Z,978.11
2023-04-26T03:47:03.336Z,978.17
2023-04-26T03:48:03.185Z,978.00
2023-04-26T03:49:03.073Z,978.03
2023-04-26T03:50:03.538Z,978.06
2023-04-26T03:51:03.103Z,978.06
2023-04-26T03:52:03.140Z,977.98
2023-04-26T03:53:03.680Z,978.12
2023-04-26T03:55:02.921Z,978.04
2023-04-26T03:56:03.597Z,978.15
2023-04-26T03:57:03.479Z,978.12
2023-04-26T03:58:03.731Z,978.12
2023-04-26T03:59:03.572Z,978.18
2023-04-26T04:00:03.203Z,978.13
2023-04-26T04:01:02.918Z,978.07
2023-04-26T04:02:03.606Z,978.13
2023-04-26T04:03:03.609Z,978.24
2023-04-26T04:04:04.051Z,978.27
2023-04-26T04:05:03.616Z,978.21
2023-04-26T04:06:03.956Z,978.18
2023-04-26T04:07:03.767Z,978.16
2023-04-26T04:08:03.427Z,978.13
2023-04-26T04:09:03.971Z,978.16
2023-04-26T04:10:03.661Z,978.13
2023-04-26T04:11:03.574Z,978.05
2023-04-26T04:12:03.623Z,978.16
2023-04-26T04:13:03.099Z,978.16
2023-04-26T04:14:03.692Z,978.27
2023-04-26T04:16:03.856Z,978.07
2023-04-26T04:17:03.512Z,978.13
2023-04-26T04:18:03.158Z,978.21
2023-04-26T04:19:03.271Z,978.24
2023-04-26T04:20:03.773Z,978.16
2023-04-26T04:22:03.742Z,978.21
2023-04-26T04:23:03.390Z,978.16
2023-04-26T04:24:03.920Z,978.21
2023-04-26T04:25:03.678Z,978.35
2023-04-26T04:26:03.437Z,978.21
2023-04-26T04:27:03.025Z,978.35
2023-04-26T04:28:03.737Z,978.30
2023-04-26T04:29:03.496Z,978.30
2023-04-26T04:30:03.106Z,978.24
2023-04-26T04:31:03.963Z,978.21
2023-04-26T04:32:03.718Z,978.18
2023-04-26T04:33:03.398Z,978.18
2023-04-26T04:34:03.828Z,978.24
2023-04-26T04:36:03.178Z,978.15
2023-04-26T04:37:03.030Z,978.18
2023-04-26T04:38:03.072Z,978.15
2023-04-26T04:39:03.090Z,978.12
2023-04-26T04:40:03.725Z,978.29
2023-04-26T04:41:03.410Z,978.29
2023-04-26T04:42:03.081Z,978.23
2023-04-26T04:43:03.638Z,978.26
2023-04-26T04:44:03.455Z,978.42
2023-04-26T04:45:02.959Z,978.36
2023-04-26T04:46:03.757Z,978.42
2023-04-26T04:47:04.126Z,978.49
2023-04-26T04:48:03.254Z,978.54
2023-04-26T04:49:03.375Z,978.40
2023-04-26T04:51:03.438Z,978.36
2023-04-26T04:53:03.205Z,978.58
2023-04-26T04:54:03.757Z,978.46
2023-04-26T04:56:03.354Z,978.48
2023-04-26T04:57:02.968Z,978.44
2023-04-26T04:58:03.586Z,978.55
2023-04-26T05:00:03.154Z,978.45
2023-04-26T05:01:03.676Z,978.52
2023-04-26T05:03:03.679Z,978.54
2023-04-26T05:04:03.421Z,978.47
2023-04-26T05:05:03.491Z,978.55
2023-04-26T05:06:03.902Z,978.63
2023-04-26T05:07:03.032Z,978.65
2023-04-26T05:08:03.517Z,978.70
2023-04-26T05:09:03.945Z,978.63
2023-04-26T05:10:03.856Z,978.54
2023-04-26T05:11:03.614Z,978.70
2023-04-26T05:13:03.387Z,978.78
2023-04-26T05:15:03.605Z,978.82
2023-04-26T05:16:03.325Z,978.93
2023-04-26T05:17:03.528Z,978.95
2023-04-26T05:18:03.260Z,978.97
2023-04-26T05:19:03.447Z,978.99
2023-04-26T05:20:03.646Z,979.07
2023-04-26T05:22:03.794Z,979.03
2023-04-26T05:23:03.504Z,979.17
2023-04-26T05:24:03.538Z,979.19
2023-04-26T05:25:03.490Z,979.33
2023-04-26T05:26:03.675Z,979.24
2023-04-26T05:28:02.971Z,979.40
2023-04-26T05:29:03.568Z,979.34
2023-04-26T05:30:03.416Z,979.48
2023-04-26T05:31:03.043Z,979.62
2023-04-26T05:32:03.357Z,979.52
2023-04-26T05:33:03.209Z,979.58
2023-04-26T05:34:03.176Z,979.54
2023-04-26T05:35:03.153Z,979.57
2023-04-26T05:36:03.739Z,979.65
2023-04-26T05:38:02.930Z,979.77
2023-04-26T05:39:03.541Z,979.93
2023-04-26T05:40:08.616Z,980.02
2023-04-26T05:42:03.569Z,979.99
2023-04-26T05:43:03.631Z,980.08
2023-04-26T05:44:03.617Z,980.11
2023-04-26T05:45:03.446Z,980.17
2023-04-26T05:46:03.436Z,980.17
2023-04-26T05:47:03.218Z,980.25
2023-04-26T05:48:03.891Z,980.34
2023-04-26T05:49:03.586Z,980.31
2023-04-26T05:50:03.192Z,980.34
2023-04-26T05:51:03.288Z,980.40
2023-04-26T05:52:03.743Z,980.34
2023-04-26T05:53:03.729Z,980.22
2023-04-26T05:54:03.380Z,980.39
2023-04-26T05:55:03.281Z,980.38
2023-04-26T05:56:03.395Z,980.35
2023-04-26T05:57:04.057Z,980.31
2023-04-26T05:58:03.763Z,980.36
2023-04-26T05:59:03.714Z,980.36
2023-04-26T06:00:03.463Z,980.38
2023-04-26T06:01:02.995Z,980.35
2023-04-26T06:02:03.702Z,980.29
2023-04-26T06:03:03.983Z,980.46
2023-04-26T06:04:04.867Z,980.37
2023-04-26T06:05:04.252Z,980.33
2023-04-26T06:06:03.862Z,980.42
2023-04-26T06:07:03.814Z,980.58
2023-04-26T06:08:03.391Z,980.49
2023-04-26T06:09:03.509Z,980.49
2023-04-26T06:10:03.281Z,980.57
2023-04-26T06:11:03.213Z,980.57
2023-04-26T06:12:03.134Z,980.66
2023-04-26T06:13:03.758Z,980.71
2023-04-26T06:14:03.157Z,980.59
2023-04-26T06:15:03.846Z,980.68
2023-04-26T06:16:03.320Z,980.77
2023-04-26T06:17:03.399Z,980.71
2023-04-26T06:18:03.050Z,980.88
2023-04-26T06:19:03.747Z,980.74
2023-04-26T06:21:03.974Z,980.86
2023-04-26T06:23:03.086Z,981.07
2023-04-26T06:24:03.155Z,980.93
2023-04-26T06:25:03.143Z,980.91
2023-04-26T06:26:03.947Z,981.06
2023-04-26T06:27:03.635Z,980.92
2023-04-26T06:28:03.330Z,981.07
2023-04-26T06:29:03.187Z,980.96
2023-04-26T06:30:03.803Z,981.02
2023-04-26T06:31:03.598Z,981.14
2023-04-26T06:32:03.329Z,981.20
2023-04-26T06:33:03.635Z,981.23
2023-04-26T06:34:03.812Z,981.06
2023-04-26T06:35:03.767Z,981.15
2023-04-26T06:36:03.696Z,981.18
2023-04-26T06:37:03.512Z,981.12
2023-04-26T06:38:03.587Z,981.12
2023-04-26T06:39:03.201Z,981.06
2023-04-26T06:40:03.996Z,981.06
2023-04-26T06:42:03.689Z,981.03
2023-04-26T06:43:03.368Z,981.03
2023-04-26T06:44:03.427Z,981.06
2023-04-26T06:45:03.037Z,981.06
2023-04-26T06:46:03.162Z,981.00
2023-04-26T06:47:03.040Z,981.12
2023-04-26T06:48:03.998Z,980.95
2023-04-26T06:49:03.880Z,981.13
2023-04-26T06:50:03.661Z,981.13
2023-04-26T06:51:03.501Z,981.11
2023-04-26T06:52:03.896Z,981.11
2023-04-26T06:53:03.584Z,981.17
2023-04-26T06:55:04.162Z,981.24
2023-04-26T06:57:03.493Z,981.19
2023-04-26T06:58:02.968Z,981.30
2023-04-26T06:59:03.554Z,981.13
2023-04-26T07:01:03.728Z,981.03
2023-04-26T07:03:04.418Z,981.05
2023-04-26T07:05:03.294Z,981.08
2023-04-26T07:06:03.037Z,981.17
2023-04-26T07:07:03.093Z,981.17
2023-04-26T07:08:03.779Z,981.09
2023-04-26T07:09:03.582Z,981.26
2023-04-26T07:10:03.735Z,981.23
2023-04-26T07:11:04.120Z,981.24
2023-04-26T07:13:03.001Z,981.30
2023-04-26T07:14:03.590Z,981.22
2023-04-26T07:15:03.451Z,981.22
2023-04-26T07:16:03.476Z,981.23
2023-04-26T07:17:03.269Z,981.20
2023-04-26T07:18:03.261Z,981.37
2023-04-26T07:19:04.021Z,981.20
2023-04-26T07:20:03.788Z,981.28
2023-04-26T07:21:03.364Z,981.13
2023-04-26T07:23:03.399Z,981.15
2023-04-26T07:24:03.108Z,981.15
2023-04-26T07:25:03.773Z,981.18
2023-04-26T07:27:03.109Z,981.17
2023-04-26T07:28:03.673Z,981.14
2023-04-26T07:30:03.835Z,981.20
2023-04-26T07:32:03.981Z,981.24
2023-04-26T07:34:03.575Z,981.30
2023-04-26T07:35:03.378Z,981.25
2023-04-26T07:36:03.083Z,981.14
2023-04-26T07:37:03.215Z,981.17
2023-04-26T07:38:03.802Z,981.28
2023-04-26T07:39:03.815Z,981.25
2023-04-26T07:40:03.124Z,981.19
2023-04-26T07:41:03.392Z,981.13
2023-04-26T07:43:03.559Z,981.15
2023-04-26T07:44:03.347Z,981.17
2023-04-26T07:45:03.903Z,981.12
2023-04-26T07:46:03.682Z,981.17
2023-04-26T07:47:03.282Z,981.20
2023-04-26T07:48:04.002Z,981.17
2023-04-26T07:50:03.680Z,981.15
2023-04-26T07:51:03.441Z,981.30
2023-04-26T07:52:02.977Z,981.24
2023-04-26T07:53:03.222Z,981.24
2023-04-26T07:54:03.754Z,981.27
2023-04-26T07:55:03.752Z,981.15
2023-04-26T07:56:03.350Z,981.09
2023-04-26T07:57:03.445Z,981.12
2023-04-26T07:58:03.100Z,981.23
2023-04-26T07:59:03.170Z,981.14
2023-04-26T08:00:03.674Z,981.05
2023-04-26T08:02:03.088Z,981.10
2023-04-26T08:03:03.597Z,981.36
2023-04-26T08:04:03.723Z,981.31
2023-04-26T08:05:03.991Z,981.36
2023-04-26T08:06:04.138Z,981.37
2023-04-26T08:08:03.162Z,981.46
2023-04-26T08:09:03.641Z,981.37
2023-04-26T08:11:03.344Z,981.33
2023-04-26T08:12:03.231Z,981.44
2023-04-26T08:13:03.043Z,981.47
2023-04-26T08:14:03.130Z,981.45
2023-04-26T08:15:03.887Z,981.48
2023-04-26T08:17:03.706Z,981.46
2023-04-26T08:18:03.925Z,981.40
2023-04-26T08:19:03.811Z,981.49
2023-04-26T08:20:03.905Z,981.46
2023-04-26T08:21:03.800Z,981.40
2023-04-26T08:22:03.963Z,981.49
2023-04-26T08:23:03.397Z,981.40
2023-04-26T08:24:03.095Z,981.45
2023-04-26T08:25:03.724Z,981.42
2023-04-26T08:27:03.397Z,981.38
2023-04-26T08:28:03.610Z,981.55
2023-04-26T08:29:03.379Z,981.38
2023-04-26T08:30:03.052Z,981.52
2023-04-26T08:31:03.798Z,981.25
2023-04-26T08:32:03.482Z,981.48
2023-04-26T08:33:03.184Z,981.47
2023-04-26T08:34:03.765Z,981.44
2023-04-26T08:36:03.935Z,981.44
2023-04-26T08:38:03.598Z,981.69
2023-04-26T08:39:03.109Z,981.53
2023-04-26T08:40:03.898Z,981.61
2023-04-26T08:41:03.994Z,981.72
2023-04-26T08:43:03.845Z,981.77
2023-04-26T08:45:03.476Z,981.77
2023-04-26T08:46:03.037Z,981.68
2023-04-26T08:47:03.064Z,981.73
2023-04-26T08:48:05.093Z,981.64
2023-04-26T08:49:03.218Z,981.76
2023-04-26T08:50:03.884Z,981.64
2023-04-26T08:52:02.989Z,981.76
2023-04-26T08:53:03.216Z,981.85
2023-04-26T08:54:05.221Z,981.85
2023-04-26T08:56:02.949Z,981.88
2023-04-26T08:57:03.491Z,981.97
2023-04-26T08:58:03.478Z,982.17
2023-04-26T08:59:03.161Z,982.09
2023-04-26T09:00:03.669Z,982.07
2023-04-26T09:02:03.652Z,982.10
2023-04-26T09:03:03.281Z,982.25
2023-04-26T09:04:04.535Z,982.11
2023-04-26T09:05:04.333Z,982.08
2023-04-26T09:06:06.275Z,982.02
2023-04-26T09:08:03.109Z,982.16
2023-04-26T09:09:03.168Z,982.02
2023-04-26T09:10:03.534Z,982.04
2023-04-26T09:11:03.111Z,982.02
2023-04-26T09:12:03.710Z,982.10
2023-04-26T09:14:03.629Z,982.01
2023-04-26T09:15:03.367Z,981.98
2023-04-26T09:16:05.548Z,982.07
2023-04-26T09:17:03.801Z,981.95
2023-04-26T09:18:03.558Z,982.03
2023-04-26T09:19:03.649Z,982.06
2023-04-26T09:20:06.587Z,982.06
2023-04-26T09:21:03.620Z,982.11
2023-04-26T09:23:03.936Z,982.10
2023-04-26T09:24:04.022Z,982.07
2023-04-26T09:25:03.609Z,982.01
2023-04-26T09:26:03.344Z,982.12
2023-04-26T09:27:03.295Z,982.01
2023-04-26T09:28:03.928Z,982.03
2023-04-26T09:29:03.610Z,982.12
2023-04-26T09:30:03.149Z,981.98
2023-04-26T09:31:03.936Z,982.06
2023-04-26T09:32:03.554Z,982.12
2023-04-26T09:33:03.250Z,982.27
2023-04-26T09:34:03.364Z,982.30
2023-04-26T09:35:03.015Z,982.30
2023-04-26T09:36:03.002Z,982.30
2023-04-26T09:37:03.655Z,982.22
2023-04-26T09:38:12.504Z,982.22
2023-04-26T09:39:03.404Z,982.20
2023-04-26T09:40:03.860Z,982.17
2023-04-26T09:42:03.205Z,982.29
2023-04-26T09:43:03.160Z,982.21
2023-04-26T09:44:03.854Z,982.35
2023-04-26T09:45:03.560Z,982.27
2023-04-26T09:46:03.649Z,982.30
2023-04-26T09:47:03.455Z,982.45
2023-04-26T09:48:03.260Z,982.30
2023-04-26T09:49:03.887Z,982.34
2023-04-26T09:51:03.682Z,982.28
2023-04-26T09:52:03.159Z,982.39
2023-04-26T09:53:03.964Z,982.28
2023-04-26T09:55:03.594Z,982.24
2023-04-26T09:56:03.110Z,982.32
2023-04-26T09:57:03.737Z,982.09
2023-04-26T09:59:02.969Z,982.34
2023-04-26T10:00:03.641Z,982.25
2023-04-26T10:01:03.675Z,982.28
2023-04-26T10:02:03.300Z,982.16
2023-04-26T10:03:03.074Z,982.22
2023-04-26T10:04:03.832Z,982.33
2023-04-26T10:05:03.682Z,982.42
2023-04-26T10:06:03.578Z,982.36
2023-04-26T10:08:03.740Z,982.33
2023-04-26T10:09:03.425Z,982.38
2023-04-26T10:10:03.893Z,982.47
2023-04-26T10:12:03.271Z,982.35
2023-04-26T10:13:03.475Z,982.47
2023-04-26T10:14:03.057Z,982.47
2023-04-26T10:15:03.794Z,982.52
2023-04-26T10:16:03.883Z,982.50
2023-04-26T10:17:03.777Z,982.53
2023-04-26T10:18:03.783Z,982.50
2023-04-26T10:19:03.698Z,982.56
2023-04-26T10:20:03.509Z,982.64
2023-04-26T10:21:03.222Z,982.61
2023-04-26T10:22:03.874Z,982.61
2023-04-26T10:24:03.049Z,982.50
2023-04-26T10:25:03.536Z,982.58
2023-04-26T10:26:03.747Z,982.35
2023-04-26T10:27:03.685Z,982.49
2023-04-26T10:28:03.675Z,982.66
2023-04-26T10:29:04.166Z,982.47
2023-04-26T10:30:03.542Z,982.52
2023-04-26T10:31:03.350Z,982.50
2023-04-26T10:32:03.530Z,982.53
2023-04-26T10:33:03.609Z,982.56
2023-04-26T10:34:03.224Z,982.70
2023-04-26T10:35:03.788Z,982.45
2023-04-26T10:36:03.648Z,982.54
2023-04-26T10:37:03.044Z,982.62
2023-04-26T10:38:03.065Z,982.57
2023-04-26T10:39:03.043Z,982.54
2023-04-26T10:40:03.100Z,982.42
2023-04-26T10:41:03.336Z,982.36
2023-04-26T10:42:03.038Z,982.36
2023-04-26T10:43:03.767Z,982.33
2023-04-26T10:45:03.288Z,982.44
2023-04-26T10:46:04.203Z,982.44
2023-04-26T10:47:03.737Z,982.32
2023-04-26T10:48:03.749Z,982.41
2023-04-26T10:49:03.133Z,982.55
2023-04-26T10:50:06.132Z,982.41
2023-04-26T10:51:03.456Z,982.32
2023-04-26T10:52:03.267Z,982.44
2023-04-26T10:53:04.297Z,982.41
2023-04-26T10:54:03.688Z,982.35
2023-04-26T10:55:03.616Z,982.38
2023-04-26T10:56:03.917Z,982.38
2023-04-26T10:57:03.521Z,982.36
2023-04-26T10:59:17.996Z,982.44
2023-04-26T11:01:03.751Z,982.36
2023-04-26T11:02:03.749Z,982.45
2023-04-26T11:03:04.043Z,982.48
2023-04-26T11:05:03.398Z,982.54
2023-04-26T11:06:03.078Z,982.43
2023-04-26T11:07:03.694Z,982.51
2023-04-26T11:09:03.840Z,982.54
2023-04-26T11:10:03.572Z,982.60
2023-04-26T11:11:03.660Z,982.49
2023-04-26T11:12:03.206Z,982.38
2023-04-26T11:13:03.301Z,982.52
2023-04-26T11:14:03.208Z,982.49
2023-04-26T11:15:03.804Z,982.46
2023-04-26T11:16:04.012Z,982.40
2023-04-26T11:18:03.611Z,982.37
2023-04-26T11:20:03.189Z,982.34
2023-04-26T11:21:03.820Z,982.34
2023-04-26T11:23:03.625Z,982.31
2023-04-26T11:24:03.697Z,982.33
2023-04-26T11:25:03.393Z,982.39
2023-04-26T11:26:04.004Z,982.24
2023-04-26T11:27:03.624Z,982.32
2023-04-26T11:28:03.779Z,982.12
2023-04-26T11:29:03.262Z,982.26
2023-04-26T11:30:03.346Z,982.20
2023-04-26T11:31:03.462Z,982.12
2023-04-26T11:32:02.952Z,982.28
2023-04-26T11:33:03.689Z,982.20
2023-04-26T11:34:03.317Z,982.28
2023-04-26T11:35:02.966Z,982.31
2023-04-26T11:36:03.499Z,982.11
2023-04-26T11:37:03.267Z,982.20
2023-04-26T11:38:03.812Z,982.25
2023-04-26T11:39:03.246Z,982.20
2023-04-26T11:40:03.961Z,982.23
2023-04-26T11:41:03.910Z,982.31
2023-04-26T11:42:03.883Z,982.23
2023-04-26T11:43:03.581Z,982.34
2023-04-26T11:44:03.894Z,982.32
2023-04-26T11:45:03.523Z,982.21
2023-04-26T11:46:03.080Z,982.27
2023-04-26T11:47:03.311Z,982.38
2023-04-26T11:48:03.247Z,982.35
2023-04-26T11:49:03.388Z,982.27
2023-04-26T11:50:03.983Z,982.30
2023-04-26T11:52:03.108Z,982.39
2023-04-26T11:53:03.622Z,982.28
2023-04-26T11:55:03.027Z,982.37
2023-04-26T11:56:03.562Z,982.37
2023-04-26T11:58:03.765Z,982.25
2023-04-26T12:00:03.606Z,982.28
2023-04-26T12:01:03.671Z,982.20
2023-04-26T12:02:03.726Z,982.34
2023-04-26T12:03:04.089Z,982.16
2023-04-26T12:04:04.079Z,982.19
2023-04-26T12:05:04.203Z,982.16
2023-04-26T12:06:03.992Z,982.10
2023-04-26T12:08:03.165Z,982.15
2023-04-26T12:09:03.036Z,982.21
2023-04-26T12:10:03.679Z,982.18
2023-04-26T12:11:03.902Z,982.15
2023-04-26T12:13:03.534Z,982.18
2023-04-26T12:14:03.282Z,982.15
2023-04-26T12:15:03.971Z,982.23
2023-04-26T12:16:18.651Z,982.15
2023-04-26T12:17:04.258Z,982.29
2023-04-26T12:18:04.129Z,982.06
2023-04-26T12:20:03.052Z,982.15
2023-04-26T12:21:03.659Z,982.09
2023-04-26T12:23:03.685Z,982.12
2023-04-26T12:25:03.710Z,982.11
2023-04-26T12:26:03.784Z,982.03
2023-04-26T12:27:03.730Z,982.14
2023-04-26T12:28:03.409Z,982.14
2023-04-26T12:30:03.017Z,982.13
2023-04-26T12:31:03.001Z,982.02
2023-04-26T12:32:04.351Z,982.04
2023-04-26T12:33:17.807Z,982.10
2023-04-26T12:34:03.885Z,982.24
2023-04-26T12:35:03.446Z,982.16
2023-04-26T12:36:03.297Z,982.13
2023-04-26T12:37:03.047Z,982.07
2023-04-26T12:38:03.041Z,981.98
2023-04-26T12:39:03.295Z,982.04
2023-04-26T12:40:03.938Z,982.27
2023-04-26T12:42:03.099Z,982.19
2023-04-26T12:43:03.642Z,982.19
2023-04-26T12:45:03.787Z,982.13
2023-04-26T12:47:03.208Z,982.19
2023-04-26T12:48:03.969Z,982.31
2023-04-26T12:50:03.795Z,982.05
2023-04-26T12:51:03.573Z,982.19
2023-04-26T12:52:03.141Z,982.08
2023-04-26T12:53:03.688Z,982.14
2023-04-26T12:54:03.227Z,982.17
2023-04-26T12:55:03.799Z,982.11
2023-04-26T12:57:03.630Z,982.16
2023-04-26T12:58:03.586Z,982.14
2023-04-26T12:59:03.287Z,982.16
2023-04-26T13:00:03.721Z,982.25
2023-04-26T13:01:03.456Z,982.05
2023-04-26T13:02:03.032Z,982.16
2023-04-26T13:03:03.866Z,982.25
2023-04-26T13:04:03.337Z,982.10
2023-04-26T13:05:03.307Z,982.22
2023-04-26T13:06:03.950Z,982.13
2023-04-26T13:07:03.754Z,982.16
2023-04-26T13:08:03.236Z,982.27
2023-04-26T13:09:03.906Z,982.13
2023-04-26T13:10:03.641Z,982.21
2023-04-26T13:11:03.265Z,982.24
2023-04-26T13:12:03.843Z,982.21
2023-04-26T13:14:03.073Z,982.24
2023-04-26T13:15:03.748Z,982.30
2023-04-26T13:16:03.523Z,982.28
2023-04-26T13:17:03.068Z,982.28
2023-04-26T13:18:03.824Z,982.26
2023-04-26T13:19:03.487Z,982.35
2023-04-26T13:20:03.073Z,982.29
2023-04-26T13:21:03.704Z,982.35
2023-04-26T13:22:03.803Z,982.36
2023-04-26T13:23:03.401Z,982.39
2023-04-26T13:24:03.464Z,982.42
2023-04-26T13:25:03.367Z,982.33
2023-04-26T13:26:03.351Z,982.33
2023-04-26T13:27:03.427Z,982.24
2023-04-26T13:28:03.479Z,982.24
2023-04-26T13:29:03.062Z,982.27
2023-04-26T13:30:03.811Z,982.21
2023-04-26T13:31:03.655Z,982.18
2023-04-26T13:32:03.533Z,982.35
2023-04-26T13:33:03.238Z,982.27
2023-04-26T13:34:03.405Z,982.18
2023-04-26T13:35:03.222Z,982.18
2023-04-26T13:36:03.736Z,982.18
2023-04-26T13:38:03.350Z,982.21
2023-04-26T13:39:03.752Z,982.15
2023-04-26T13:41:02.897Z,982.41
2023-04-26T13:42:03.516Z,982.18
2023-04-26T13:44:03.822Z,982.26
2023-04-26T13:45:03.551Z,982.17
2023-04-26T13:46:03.043Z,982.29
2023-04-26T13:47:03.626Z,982.06
2023-04-26T13:48:03.493Z,982.08
2023-04-26T13:49:03.514Z,982.14
2023-04-26T13:50:03.143Z,982.08
2023-04-26T13:51:06.920Z,982.20
2023-04-26T13:53:03.607Z,982.15
2023-04-26T13:54:03.759Z,982.12
2023-04-26T13:55:03.532Z,982.20
2023-04-26T13:57:03.758Z,982.09
2023-04-26T13:59:03.894Z,982.14
2023-04-26T14:01:03.152Z,982.08
2023-04-26T14:02:03.941Z,982.10
2023-04-26T14:03:03.689Z,982.02
2023-04-26T14:04:04.347Z,982.07
2023-04-26T14:06:03.740Z,982.19
2023-04-26T14:07:03.851Z,982.19
2023-04-26T14:08:03.424Z,982.30
2023-04-26T14:09:03.449Z,982.19
2023-04-26T14:10:03.391Z,982.22
2023-04-26T14:11:03.146Z,982.14
2023-04-26T14:12:09.290Z,982.25
2023-04-26T14:13:03.377Z,982.25
2023-04-26T14:14:03.943Z,982.25
2023-04-26T14:16:03.778Z,982.43
2023-04-26T14:17:04.052Z,982.23
2023-04-26T14:19:03.389Z,982.37
2023-04-26T14:21:03.585Z,982.26
2023-04-26T14:22:03.347Z,982.32
2023-04-26T14:23:02.920Z,982.18
2023-04-26T14:24:03.537Z,982.24
2023-04-26T14:26:03.185Z,982.18
2023-04-26T14:27:03.333Z,982.24
2023-04-26T14:28:03.333Z,982.35
2023-04-26T14:29:03.927Z,982.24
2023-04-26T14:31:03.361Z,982.18
2023-04-26T14:32:02.986Z,982.32